Time;durP1;ratioP1;P1;durP2;ratioP2;P2;SDS_P1;SDS_P2;PMS_P1;PMS_P2;Temp;Humidity;BMP_temperature;BMP_pressure;BME280_temperature;BME280_humidity;BME280_pressure;Samples;Min_cycle;Max_cycle;Signal;HPM_P1;HPM_P2
2021/03/06 00:01:59;;;;;;;6.53;2.67;;;2.60;62.90;;;;;;4963636;28;20079;-74
2021/03/06 00:04:24;;;;;;;5.57;2.33;;;2.60;62.70;;;;;;4955981;28;20039;-73
2021/03/06 00:06:50;;;;;;;5.97;3.00;;;2.60;62.40;;;;;;4955307;28;20039;-72
2021/03/06 00:09:16;;;;;;;5.00;2.83;;;2.50;62.20;;;;;;4962146;28;20045;-73
2021/03/06 00:11:41;;;;;;;5.73;2.87;;;2.40;62.60;;;;;;4975740;28;20066;-73
2021/03/06 00:14:07;;;;;;;6.50;3.27;;;2.30;62.50;;;;;;4958477;28;20404;-72
2021/03/06 00:16:32;;;;;;;5.10;2.97;;;2.30;63.10;;;;;;4974227;28;20041;-70
2021/03/06 00:18:58;;;;;;;4.97;2.53;;;2.30;63.50;;;;;;4967699;28;20042;-74
2021/03/06 00:21:24;;;;;;;5.30;2.40;;;2.30;63.20;;;;;;4965733;28;20049;-70
2021/03/06 00:23:49;;;;;;;7.07;3.10;;;2.30;63.40;;;;;;4971888;28;20038;-71
2021/03/06 00:26:15;;;;;;;4.63;2.20;;;2.30;63.00;;;;;;4971105;28;20122;-72
2021/03/06 00:28:41;;;;;;;4.07;2.43;;;2.30;63.10;;;;;;4941816;28;20031;-72
2021/03/06 00:31:06;;;;;;;4.63;2.80;;;2.30;63.20;;;;;;4955175;28;20090;-72
2021/03/06 00:33:32;;;;;;;5.10;2.00;;;2.40;63.40;;;;;;4955623;28;20040;-71
2021/03/06 00:35:57;;;;;;;4.70;2.60;;;2.40;63.60;;;;;;4969731;28;20042;-72
2021/03/06 00:38:23;;;;;;;5.67;3.20;;;2.40;63.10;;;;;;4957024;28;20492;-70
2021/03/06 00:40:49;;;;;;;3.87;2.23;;;2.30;63.60;;;;;;4974239;28;20126;-70
2021/03/06 00:43:14;;;;;;;5.17;2.67;;;2.30;63.50;;;;;;4974036;28;20030;-70
2021/03/06 00:45:40;;;;;;;4.60;2.60;;;2.30;63.80;;;;;;4971786;28;20038;-71
2021/03/06 00:48:06;;;;;;;4.87;2.47;;;2.30;63.20;;;;;;4974067;28;20031;-70
2021/03/06 00:50:34;;;;;;;5.40;2.77;;;2.30;63.60;;;;;;4972255;28;20043;-71
2021/03/06 00:52:59;;;;;;;6.93;2.60;;;2.30;63.70;;;;;;4974262;28;20053;-73
2021/03/06 00:55:25;;;;;;;5.23;2.63;;;2.30;63.80;;;;;;4973123;28;20435;-72
2021/03/06 00:57:51;;;;;;;5.03;2.57;;;2.20;64.00;;;;;;4974637;28;20452;-70
2021/03/06 01:00:17;;;;;;;4.63;2.63;;;2.20;64.40;;;;;;4973386;28;20515;-70
2021/03/06 01:02:43;;;;;;;6.43;2.57;;;2.10;64.30;;;;;;4960532;28;20031;-71
2021/03/06 01:05:09;;;;;;;5.60;2.90;;;2.10;64.00;;;;;;4953301;28;20113;-72
2021/03/06 01:07:35;;;;;;;5.67;3.43;;;2.10;63.60;;;;;;4953606;29;20040;-72
2021/03/06 01:10:03;;;;;;;5.97;3.07;;;2.10;64.00;;;;;;4967680;28;20049;-73
2021/03/06 01:12:29;;;;;;;5.50;2.60;;;2.10;64.30;;;;;;4972432;28;20550;-72
2021/03/06 01:14:54;;;;;;;4.83;2.90;;;2.10;64.10;;;;;;4967734;28;20047;-72
2021/03/06 01:17:20;;;;;;;5.43;2.90;;;2.00;64.50;;;;;;4961670;28;20038;-72
2021/03/06 01:19:46;;;;;;;5.87;2.80;;;2.00;64.50;;;;;;4960510;28;20042;-72
2021/03/06 01:22:11;;;;;;;7.63;3.47;;;2.00;64.70;;;;;;4968441;28;20082;-72
2021/03/06 01:24:37;;;;;;;6.43;3.53;;;2.00;64.70;;;;;;4956880;28;20373;-72
2021/03/06 01:27:03;;;;;;;4.37;2.97;;;1.90;65.20;;;;;;4974019;28;20093;-74
2021/03/06 01:29:29;;;;;;;4.80;3.07;;;1.90;64.90;;;;;;4962628;28;20042;-71
2021/03/06 01:31:54;;;;;;;5.97;3.10;;;1.80;65.00;;;;;;4962155;28;20722;-72
2021/03/06 01:34:20;;;;;;;4.93;2.83;;;1.80;65.10;;;;;;4969212;28;20118;-72
2021/03/06 01:36:46;;;;;;;5.60;3.37;;;1.80;65.10;;;;;;4968541;28;20043;-72
2021/03/06 01:39:11;;;;;;;5.27;2.47;;;1.80;65.10;;;;;;4959755;28;20039;-71
2021/03/06 01:41:37;;;;;;;5.83;2.63;;;1.70;65.70;;;;;;4961357;28;20039;-71
2021/03/06 01:44:03;;;;;;;7.50;3.23;;;1.60;65.40;;;;;;4967091;28;20064;-74
2021/03/06 01:46:28;;;;;;;7.17;2.93;;;1.60;65.90;;;;;;4955781;28;20126;-71
2021/03/06 01:48:54;;;;;;;6.30;3.17;;;1.60;65.90;;;;;;4973475;28;20031;-70
2021/03/06 01:51:20;;;;;;;6.23;3.17;;;1.50;66.20;;;;;;4972700;28;20115;-70
2021/03/06 01:53:45;;;;;;;3.73;2.27;;;1.50;66.30;;;;;;4960067;28;20510;-70
2021/03/06 01:56:11;;;;;;;4.43;2.70;;;1.50;65.90;;;;;;4968692;28;20038;-70
2021/03/06 01:58:37;;;;;;;6.43;2.83;;;1.50;65.90;;;;;;4956291;28;20035;-70
2021/03/06 02:01:02;;;;;;;9.13;2.80;;;1.50;65.80;;;;;;4973539;28;20051;-76
2021/03/06 02:03:28;;;;;;;5.13;2.90;;;1.60;65.90;;;;;;4965098;28;20073;-71
2021/03/06 02:05:54;;;;;;;4.73;2.93;;;1.50;65.40;;;;;;4972742;28;20365;-72
2021/03/06 02:08:19;;;;;;;6.73;2.83;;;1.50;65.30;;;;;;4971727;28;20174;-71
2021/03/06 02:10:45;;;;;;;4.77;2.57;;;1.50;65.50;;;;;;4973916;28;20031;-71
2021/03/06 02:13:34;;;;;;;4.40;2.37;;;1.50;65.40;;;;;;4963960;28;20035;-72
2021/03/06 02:16:21;;;;;;;4.87;2.53;;;1.40;65.20;;;;;;4966740;28;20117;-71
2021/03/06 02:19:01;;;;;;;6.17;2.73;;;1.40;65.40;;;;;;4935110;29;20039;-71
2021/03/06 02:21:56;;;;;;;3.70;2.67;;;1.40;65.60;;;;;;4934498;29;20044;-72
2021/03/06 02:24:47;;;;;;;4.27;2.70;;;1.40;65.40;;;;;;4951588;28;20039;-71
2021/03/06 02:27:55;;;;;;;3.67;2.35;;;1.40;65.40;;;;;;4963976;28;20032;-69
2021/03/06 02:30:25;;;;;;;3.57;2.50;;;1.30;65.70;;;;;;4967780;28;20035;-70
2021/03/06 02:32:52;;;;;;;5.73;2.90;;;1.30;65.60;;;;;;4963533;28;20031;-70
2021/03/06 02:35:27;;;;;;;6.73;2.80;;;1.30;65.80;;;;;;4972245;28;20027;-70
2021/03/06 02:37:58;;;;;;;4.60;2.50;;;1.30;66.20;;;;;;4973035;28;20050;-70
2021/03/06 02:40:25;;;;;;;4.90;2.80;;;1.30;66.10;;;;;;4953868;28;20039;-70
2021/03/06 02:42:52;;;;;;;7.03;2.80;;;1.20;66.00;;;;;;4957409;28;20043;-70
2021/03/06 02:45:19;;;;;;;3.80;2.70;;;1.20;66.00;;;;;;4971331;28;20043;-70
2021/03/06 02:47:46;;;;;;;5.23;2.70;;;1.20;65.70;;;;;;4973004;28;20096;-70
2021/03/06 02:50:14;;;;;;;5.67;2.70;;;1.10;65.70;;;;;;4972391;28;20059;-70
2021/03/06 02:52:40;;;;;;;4.93;2.70;;;1.10;66.00;;;;;;4972746;28;20038;-70
2021/03/06 02:55:09;;;;;;;5.77;2.80;;;1.10;66.20;;;;;;4972642;28;20039;-73
2021/03/06 02:58:12;;;;;;;4.13;2.83;;;1.10;66.70;;;;;;4972972;28;20039;-70
2021/03/06 03:00:45;;;;;;;4.10;2.27;;;1.10;66.70;;;;;;4971277;28;20042;-70
2021/03/06 03:03:10;;;;;;;5.40;2.60;;;1.10;66.30;;;;;;4956557;28;20031;-71
2021/03/06 03:05:50;;;;;;;5.97;2.67;;;1.10;66.30;;;;;;4962998;28;20093;-70
2021/03/06 03:08:53;;;;;;;5.60;2.77;;;1.00;66.10;;;;;;4971108;28;20056;-70
2021/03/06 03:11:24;;;;;;;4.17;2.80;;;1.00;66.60;;;;;;4972185;28;20133;-71
2021/03/06 03:13:55;;;;;;;4.77;2.47;;;1.00;66.60;;;;;;4974996;28;20051;-70
2021/03/06 03:16:21;;;;;;;4.20;2.50;;;1.00;66.50;;;;;;4975802;28;20276;-70
2021/03/06 03:18:53;;;;;;;5.10;2.90;;;1.00;66.70;;;;;;4975121;28;20864;-70
2021/03/06 03:21:24;;;;;;;5.93;2.67;;;0.90;66.60;;;;;;4966232;28;20527;-70
2021/03/06 03:23:57;;;;;;;5.00;2.30;;;0.90;67.00;;;;;;4968494;28;20046;-70
2021/03/06 03:26:25;;;;;;;5.53;2.73;;;0.90;67.10;;;;;;4975660;28;20039;-70
2021/03/06 03:28:52;;;;;;;4.10;2.43;;;0.80;67.00;;;;;;4970307;28;20066;-70
2021/03/06 03:31:19;;;;;;;4.23;2.67;;;0.80;67.10;;;;;;4955050;29;20546;-70
2021/03/06 03:33:46;;;;;;;5.37;2.90;;;0.80;66.90;;;;;;4967666;28;20049;-70
2021/03/06 03:36:12;;;;;;;3.93;2.30;;;0.80;67.10;;;;;;4975610;28;20030;-70
2021/03/06 03:38:38;;;;;;;5.17;3.10;;;0.70;67.40;;;;;;4975743;28;20392;-70
2021/03/06 03:41:08;;;;;;;4.60;2.80;;;0.70;67.50;;;;;;4968351;28;20541;-70
2021/03/06 03:43:34;;;;;;;4.27;2.50;;;0.70;67.50;;;;;;4966985;28;20036;-70
2021/03/06 03:46:03;;;;;;;4.93;2.97;;;0.60;67.30;;;;;;4960815;28;20510;-69
2021/03/06 03:48:29;;;;;;;5.73;2.60;;;0.50;67.70;;;;;;4956508;28;20484;-70
2021/03/06 03:50:55;;;;;;;5.70;2.80;;;0.50;67.80;;;;;;4975911;28;20035;-70
2021/03/06 03:53:21;;;;;;;6.53;2.90;;;0.50;68.30;;;;;;4974983;28;20392;-70
2021/03/06 03:55:46;;;;;;;6.97;2.63;;;0.50;67.90;;;;;;4962207;28;20047;-70
2021/03/06 03:58:12;;;;;;;4.63;2.50;;;0.50;67.80;;;;;;4954431;28;20043;-71
2021/03/06 04:00:38;;;;;;;5.33;2.83;;;0.50;67.70;;;;;;4958802;28;20046;-70
2021/03/06 04:03:09;;;;;;;3.80;2.60;;;0.40;67.80;;;;;;4967066;28;20034;-69
2021/03/06 04:05:35;;;;;;;3.23;2.23;;;0.40;68.20;;;;;;4967606;28;20049;-70
2021/03/06 04:08:01;;;;;;;4.93;2.67;;;0.40;68.10;;;;;;4974198;28;20444;-70
2021/03/06 04:10:27;;;;;;;4.00;2.53;;;0.40;68.20;;;;;;4957221;28;20040;-70
2021/03/06 04:12:54;;;;;;;5.87;3.03;;;0.40;67.90;;;;;;4968791;28;20040;-70
2021/03/06 04:15:23;;;;;;;4.80;2.70;;;0.30;67.80;;;;;;4962237;28;20053;-70
2021/03/06 04:17:49;;;;;;;5.57;2.43;;;0.30;67.80;;;;;;4961693;28;20039;-70
2021/03/06 04:20:18;;;;;;;5.20;2.50;;;0.30;67.90;;;;;;4955492;29;20035;-70
2021/03/06 04:22:43;;;;;;;5.43;2.77;;;0.30;67.80;;;;;;4958382;28;20077;-69
2021/03/06 04:25:10;;;;;;;4.93;2.47;;;0.30;68.10;;;;;;4966533;28;20427;-72
2021/03/06 04:27:36;;;;;;;4.47;2.50;;;0.30;68.40;;;;;;4964896;28;20034;-70
2021/03/06 04:30:05;;;;;;;5.93;2.93;;;0.30;68.30;;;;;;4975376;28;20031;-70
2021/03/06 04:32:31;;;;;;;8.30;2.57;;;0.30;68.50;;;;;;4957068;28;20171;-70
2021/03/06 04:34:56;;;;;;;4.83;2.93;;;0.20;68.40;;;;;;4968397;28;20452;-70
2021/03/06 04:37:22;;;;;;;3.50;2.30;;;0.30;68.40;;;;;;4962618;28;20046;-71
2021/03/06 04:39:48;;;;;;;4.33;2.70;;;0.20;68.70;;;;;;4974740;28;20399;-70
2021/03/06 04:42:14;;;;;;;4.17;2.53;;;0.20;68.30;;;;;;4964889;28;20039;-70
2021/03/06 04:44:40;;;;;;;4.17;2.57;;;0.20;68.30;;;;;;4960110;28;20043;-70
2021/03/06 04:47:05;;;;;;;6.27;2.50;;;0.10;68.10;;;;;;4949620;28;20081;-70
2021/03/06 04:49:32;;;;;;;6.00;2.80;;;0.20;68.50;;;;;;4964599;28;20459;-70
2021/03/06 04:51:58;;;;;;;8.03;2.90;;;0.20;68.50;;;;;;4959912;28;20105;-70
2021/03/06 04:54:24;;;;;;;5.87;2.53;;;0.20;68.60;;;;;;4970337;28;20482;-70
2021/03/06 04:56:50;;;;;;;4.33;2.70;;;0.20;68.50;;;;;;4974366;28;20045;-70
2021/03/06 04:59:17;;;;;;;4.57;2.30;;;0.20;68.20;;;;;;4967448;28;20082;-71
2021/03/06 05:01:42;;;;;;;4.13;2.20;;;0.20;68.50;;;;;;4962566;28;20051;-70
2021/03/06 05:04:08;;;;;;;7.47;2.77;;;0.10;68.50;;;;;;4969042;28;20506;-70
2021/03/06 05:06:34;;;;;;;4.53;2.40;;;0.10;68.20;;;;;;4972338;28;20483;-70
2021/03/06 05:08:59;;;;;;;4.27;2.53;;;0.10;68.10;;;;;;4967121;28;20047;-70
2021/03/06 05:11:25;;;;;;;5.43;2.80;;;0.10;68.30;;;;;;4962939;28;20109;-70
2021/03/06 05:13:51;;;;;;;4.77;2.67;;;0.00;68.40;;;;;;4960472;28;20039;-70
2021/03/06 05:16:16;;;;;;;4.03;2.40;;;-0.10;68.50;;;;;;4969060;28;20035;-71
2021/03/06 05:18:42;;;;;;;5.63;2.43;;;0.00;68.80;;;;;;4972987;28;20455;-70
2021/03/06 05:21:09;;;;;;;5.17;2.70;;;-0.10;69.10;;;;;;4973109;28;20373;-70
2021/03/06 05:23:34;;;;;;;4.40;2.63;;;-0.10;69.30;;;;;;4973521;28;20174;-71
2021/03/06 05:26:00;;;;;;;5.83;2.60;;;-0.10;68.90;;;;;;4959154;28;20518;-71
2021/03/06 05:28:25;;;;;;;4.27;2.60;;;-0.10;69.20;;;;;;4970212;28;20043;-70
2021/03/06 05:30:52;;;;;;;6.20;2.50;;;-0.10;69.00;;;;;;4974096;28;20045;-70
2021/03/06 05:33:17;;;;;;;4.37;2.20;;;-0.10;69.40;;;;;;4963885;28;20043;-72
2021/03/06 05:35:44;;;;;;;3.53;2.50;;;-0.10;69.00;;;;;;4952859;28;20114;-71
2021/03/06 05:38:11;;;;;;;5.07;2.67;;;-0.10;69.40;;;;;;4968471;28;20042;-71
2021/03/06 05:40:42;;;;;;;3.77;2.13;;;-0.10;69.40;;;;;;4955788;28;20296;-71
2021/03/06 05:43:08;;;;;;;5.37;2.40;;;-0.10;69.40;;;;;;4966023;28;20205;-70
2021/03/06 05:45:34;;;;;;;3.13;2.10;;;-0.10;69.10;;;;;;4963909;28;20034;-71
2021/03/06 05:48:01;;;;;;;4.23;2.30;;;-0.10;69.20;;;;;;4974219;28;20046;-71
2021/03/06 05:50:28;;;;;;;3.57;2.47;;;-0.10;69.10;;;;;;4955848;28;20038;-71
2021/03/06 05:52:57;;;;;;;4.10;2.23;;;-0.10;69.40;;;;;;4973794;28;20173;-70
2021/03/06 05:55:26;;;;;;;4.67;2.43;;;-0.10;69.30;;;;;;4971535;28;20126;-71
2021/03/06 05:57:56;;;;;;;4.93;2.50;;;-0.10;69.30;;;;;;4959591;28;20062;-71
2021/03/06 06:00:23;;;;;;;7.10;2.63;;;-0.10;69.10;;;;;;4968232;28;20051;-71
2021/03/06 06:02:53;;;;;;;3.33;2.13;;;-0.20;69.20;;;;;;4965021;28;20480;-70
2021/03/06 06:05:19;;;;;;;5.57;2.20;;;-0.20;69.40;;;;;;4963139;28;20039;-71
2021/03/06 06:07:46;;;;;;;3.97;2.20;;;-0.20;69.60;;;;;;4964297;28;20392;-71
2021/03/06 06:10:12;;;;;;;4.47;2.90;;;-0.20;69.60;;;;;;4973394;28;20383;-70
2021/03/06 06:12:42;;;;;;;5.93;2.20;;;-0.20;69.30;;;;;;4971418;28;20041;-71
2021/03/06 06:15:09;;;;;;;4.87;2.40;;;-0.20;69.20;;;;;;4965599;28;20110;-71
2021/03/06 06:17:35;;;;;;;5.27;2.60;;;-0.20;69.30;;;;;;4962209;28;20479;-70
2021/03/06 06:20:01;;;;;;;5.47;2.77;;;-0.20;69.10;;;;;;4972031;28;20130;-70
2021/03/06 06:22:27;;;;;;;4.57;2.50;;;-0.20;69.10;;;;;;4966684;28;20032;-70
2021/03/06 06:24:53;;;;;;;4.17;2.17;;;-0.20;69.30;;;;;;4973236;28;20038;-70
2021/03/06 06:27:30;;;;;;;6.30;2.90;;;-0.20;69.00;;;;;;4963170;28;20046;-73
2021/03/06 06:29:57;;;;;;;3.53;2.57;;;-0.20;69.20;;;;;;4959251;28;20031;-70
2021/03/06 06:32:39;;;;;;;5.50;2.40;;;-0.20;69.00;;;;;;4960260;28;20035;-70
2021/03/06 06:35:11;;;;;;;6.30;2.30;;;-0.10;68.90;;;;;;4965606;28;20039;-70
2021/03/06 06:37:37;;;;;;;;;;;-0.10;69.00;;;;;;4962422;28;20595;-70
2021/03/06 06:40:21;;;;;;;5.03;2.53;;;-0.10;69.20;;;;;;4957523;28;19961;-70
2021/03/06 06:42:48;;;;;;;4.80;2.57;;;-0.10;68.90;;;;;;4941360;28;20137;-70
2021/03/06 06:45:15;;;;;;;4.67;2.57;;;-0.10;68.70;;;;;;4963903;28;20399;-70
2021/03/06 06:47:43;;;;;;;5.57;2.50;;;-0.10;68.60;;;;;;4963626;28;20040;-70
2021/03/06 06:50:11;;;;;;;4.17;2.13;;;-0.10;68.50;;;;;;4960181;28;20102;-70
2021/03/06 06:52:42;;;;;;;5.07;2.40;;;-0.10;68.40;;;;;;4975463;28;20501;-70
2021/03/06 06:55:10;;;;;;;4.53;2.37;;;-0.10;68.50;;;;;;4976892;28;20045;-70
2021/03/06 06:57:47;;;;;;;8.70;2.50;;;0.00;67.80;;;;;;4964285;28;20047;-70
2021/03/06 07:00:13;;;;;;;3.67;2.10;;;0.10;68.00;;;;;;4971931;28;20480;-71
2021/03/06 07:02:54;;;;;;;4.70;2.47;;;0.10;67.80;;;;;;4958553;28;20203;-70
2021/03/06 07:05:35;;;;;;;4.17;1.90;;;0.20;67.80;;;;;;4966233;28;20049;-73
2021/03/06 07:08:06;;;;;;;3.77;2.00;;;0.20;67.80;;;;;;4971166;28;20163;-70
2021/03/06 07:10:40;;;;;;;6.60;2.42;;;0.30;67.90;;;;;;4975464;28;20039;-70
2021/03/06 07:13:11;;;;;;;5.93;2.57;;;0.30;67.10;;;;;;4976464;28;20142;-70
2021/03/06 07:15:38;;;;;;;5.23;2.00;;;0.30;67.00;;;;;;4963499;28;20035;-70
2021/03/06 07:18:23;;;;;;;5.37;2.40;;;0.40;66.90;;;;;;4970163;28;20042;-70
2021/03/06 07:20:49;;;;;;;6.03;2.83;;;0.50;67.30;;;;;;4946705;28;20031;-71
2021/03/06 07:23:26;;;;;;;3.57;2.30;;;0.50;66.30;;;;;;4967114;28;20059;-70
2021/03/06 07:25:54;;;;;;;4.90;2.40;;;0.60;66.40;;;;;;4968408;28;20476;-71
2021/03/06 07:28:20;;;;;;;4.63;2.40;;;0.60;66.60;;;;;;4975561;28;20463;-71
2021/03/06 07:30:47;;;;;;;6.67;2.67;;;0.60;66.10;;;;;;4976526;28;20062;-70
2021/03/06 07:33:16;;;;;;;3.80;2.13;;;0.70;65.60;;;;;;4966633;28;20043;-70
2021/03/06 07:35:44;;;;;;;4.97;2.33;;;0.80;65.30;;;;;;4962425;28;20477;-71
2021/03/06 07:38:14;;;;;;;6.03;2.77;;;0.80;65.20;;;;;;4970685;28;20121;-70
2021/03/06 07:40:42;;;;;;;4.03;2.23;;;0.80;64.90;;;;;;4958085;28;20046;-70
2021/03/06 07:43:14;;;;;;;3.80;2.13;;;0.90;64.20;;;;;;4976036;28;20484;-70
2021/03/06 07:45:45;;;;;;;4.63;2.17;;;0.90;64.30;;;;;;4961771;28;20113;-71
2021/03/06 07:48:16;;;;;;;5.78;2.20;;;1.00;65.50;;;;;;4958842;28;20058;-70
2021/03/06 07:50:53;;;;;;;3.40;2.30;;;1.00;64.60;;;;;;4937383;29;20175;-71
2021/03/06 07:53:21;;;;;;;4.73;2.67;;;1.10;64.60;;;;;;4963712;28;20126;-71
2021/03/06 07:55:48;;;;;;;4.50;2.33;;;1.10;64.80;;;;;;4975622;28;20051;-71
2021/03/06 07:58:19;;;;;;;4.27;2.70;;;1.20;64.80;;;;;;4958473;28;20035;-71
2021/03/06 08:00:44;;;;;;;4.70;2.20;;;1.20;65.00;;;;;;4942439;28;20396;-71
2021/03/06 08:03:33;;;;;;;4.07;2.60;;;1.30;63.80;;;;;;4958874;28;20035;-71
2021/03/06 08:06:05;;;;;;;3.47;2.30;;;1.30;63.80;;;;;;4937362;29;20028;-71
2021/03/06 08:08:34;;;;;;;5.00;2.30;;;1.40;62.50;;;;;;4972560;28;20600;-71
2021/03/06 08:11:06;;;;;;;5.57;2.27;;;1.50;62.60;;;;;;4968514;28;20082;-71
2021/03/06 08:13:36;;;;;;;4.17;2.30;;;1.50;63.10;;;;;;4964286;28;20054;-71
2021/03/06 08:16:22;;;;;;;3.43;2.00;;;1.50;64.00;;;;;;4960256;28;20415;-71
2021/03/06 08:18:49;;;;;;;4.37;2.03;;;1.60;61.40;;;;;;4936390;29;20462;-71
2021/03/06 08:21:36;;;;;;;4.07;2.60;;;1.60;62.10;;;;;;4951395;28;20042;-71
2021/03/06 08:26:52;;;;;;;5.53;3.20;;;1.80;61.20;;;;;;4974779;28;20038;-71
2021/03/06 08:29:24;;;;;;;8.33;3.20;;;1.80;62.40;;;;;;4975424;28;20464;-71
2021/03/06 08:32:17;;;;;;;6.57;3.05;;;1.90;61.80;;;;;;4961175;28;20039;-71
2021/03/06 08:34:51;;;;;;;7.03;3.53;;;2.00;61.10;;;;;;4958548;28;20034;-71
2021/03/06 08:37:20;;;;;;;4.87;2.70;;;2.00;60.40;;;;;;4965774;28;20039;-71
2021/03/06 08:39:59;;;;;;;3.80;2.10;;;2.00;60.10;;;;;;4965651;28;20185;-71
2021/03/06 08:42:28;;;;;;;4.00;2.20;;;2.00;60.10;;;;;;4956230;28;20083;-73
2021/03/06 08:45:09;;;;;;;4.30;2.40;;;2.10;60.50;;;;;;4959464;28;20043;-71
2021/03/06 08:47:41;;;;;;;4.20;2.50;;;2.20;61.50;;;;;;4962187;28;20061;-71
2021/03/06 08:50:12;;;;;;;5.15;2.60;;;2.30;61.90;;;;;;4955669;29;20103;-71
2021/03/06 08:52:39;;;;;;;4.25;2.83;;;2.40;60.40;;;;;;4972433;28;20093;-71
2021/03/06 08:55:09;;;;;;;3.63;2.60;;;2.50;60.20;;;;;;4973314;28;20404;-72
2021/03/06 08:57:37;;;;;;;3.87;2.40;;;2.60;58.70;;;;;;4962248;28;20039;-72
2021/03/06 09:00:27;;;;;;;4.43;2.83;;;2.60;59.30;;;;;;4954039;28;20089;-71
2021/03/06 09:02:53;;;;;;;4.40;2.23;;;2.60;58.70;;;;;;4948062;29;20122;-72
2021/03/06 09:05:25;;;;;;;6.97;2.67;;;2.70;60.00;;;;;;4962419;28;20049;-70
2021/03/06 09:07:56;;;;;;;3.92;2.22;;;2.70;59.00;;;;;;4960405;28;20489;-71
2021/03/06 09:10:24;;;;;;;5.70;2.73;;;2.80;59.10;;;;;;4968893;28;20507;-71
2021/03/06 09:12:55;;;;;;;4.30;2.43;;;2.90;60.30;;;;;;4953431;29;20567;-71
2021/03/06 09:15:52;;;;;;;4.03;2.50;;;2.90;59.00;;;;;;4962725;28;20039;-71
2021/03/06 09:18:23;;;;;;;4.23;2.40;;;3.00;58.10;;;;;;4965188;28;20042;-71
2021/03/06 09:20:57;;;;;;;9.03;2.83;;;3.00;58.50;;;;;;4968220;28;20039;-71
2021/03/06 09:23:27;;;;;;;6.33;2.63;;;3.00;58.00;;;;;;4963754;28;20110;-73
2021/03/06 09:25:53;;;;;;;6.67;2.70;;;3.00;58.00;;;;;;4974268;28;20035;-71
2021/03/06 09:28:30;;;;;;;5.37;2.63;;;3.00;59.10;;;;;;4956715;28;20031;-71
2021/03/06 09:30:57;;;;;;;4.37;2.53;;;3.20;59.30;;;;;;4954853;29;20064;-71
2021/03/06 09:33:27;;;;;;;5.50;2.77;;;3.20;59.20;;;;;;4962151;28;20038;-72
2021/03/06 09:36:06;;;;;;;4.70;2.60;;;3.30;59.10;;;;;;4959880;28;20043;-72
2021/03/06 09:38:33;;;;;;;5.17;2.60;;;3.40;59.00;;;;;;4954845;28;20453;-72
2021/03/06 09:40:59;;;;;;;3.90;2.70;;;3.50;58.40;;;;;;4966915;28;20078;-71
2021/03/06 09:43:29;;;;;;;4.43;2.60;;;3.50;57.70;;;;;;4962192;28;20125;-73
2021/03/06 09:45:56;;;;;;;6.27;2.80;;;3.60;58.40;;;;;;4959510;28;20085;-71
2021/03/06 09:48:22;;;;;;;4.30;2.70;;;3.70;58.60;;;;;;4955464;28;20385;-72
2021/03/06 09:50:48;;;;;;;4.10;2.60;;;3.70;57.70;;;;;;4973269;28;20031;-72
2021/03/06 09:53:19;;;;;;;3.90;2.67;;;3.80;57.10;;;;;;4973605;28;20039;-72
2021/03/06 09:55:46;;;;;;;3.73;2.47;;;3.90;56.00;;;;;;4972684;28;20042;-72
2021/03/06 09:58:20;;;;;;;5.87;2.80;;;3.80;56.50;;;;;;4956516;28;20035;-72
2021/03/06 10:00:46;;;;;;;5.40;2.83;;;3.80;56.30;;;;;;4942173;28;20565;-72
2021/03/06 10:03:26;;;;;;;5.03;3.00;;;3.80;57.60;;;;;;4963910;28;20129;-72
2021/03/06 10:05:54;;;;;;;4.07;2.40;;;4.00;58.20;;;;;;4973562;28;20034;-72
2021/03/06 10:08:20;;;;;;;6.67;2.70;;;3.90;56.80;;;;;;4973412;28;20034;-72
2021/03/06 10:10:49;;;;;;;5.43;3.13;;;4.00;57.70;;;;;;4963028;28;20035;-72
2021/03/06 10:13:17;;;;;;;5.20;2.50;;;4.00;56.60;;;;;;4951401;28;20039;-70
2021/03/06 10:15:43;;;;;;;5.83;3.03;;;4.00;56.10;;;;;;4951686;28;20035;-70
2021/03/06 10:18:09;;;;;;;5.30;2.77;;;4.10;57.00;;;;;;4952523;28;20072;-70
2021/03/06 10:20:35;;;;;;;7.57;3.13;;;4.10;57.60;;;;;;4949117;28;20070;-69
2021/03/06 10:23:00;;;;;;;4.87;2.80;;;4.10;55.70;;;;;;4958515;28;20476;-71
2021/03/06 10:25:27;;;;;;;3.80;2.77;;;4.20;56.30;;;;;;4973089;28;20465;-70
2021/03/06 10:27:53;;;;;;;6.23;2.77;;;4.30;56.00;;;;;;4959453;28;20046;-72
2021/03/06 10:30:33;;;;;;;5.20;2.80;;;4.30;56.90;;;;;;4967446;28;20043;-71
2021/03/06 10:33:03;;;;;;;3.33;2.50;;;4.50;56.10;;;;;;4965037;28;20576;-72
2021/03/06 10:35:42;;;;;;;4.43;2.43;;;4.50;57.00;;;;;;4958596;28;20401;-72
2021/03/06 10:38:13;;;;;;;5.37;3.17;;;4.60;54.80;;;;;;4967620;28;20070;-71
2021/03/06 10:40:49;;;;;;;4.60;2.30;;;4.60;53.80;;;;;;4955393;28;20039;-72
2021/03/06 10:43:34;;;;;;;5.03;3.00;;;4.60;55.60;;;;;;4973292;28;20046;-71
2021/03/06 10:46:21;;;;;;;5.13;2.90;;;4.70;54.90;;;;;;4972927;28;20548;-72
2021/03/06 10:48:55;;;;;;;4.13;2.83;;;4.80;56.30;;;;;;4942027;28;20042;-72
2021/03/06 10:51:22;;;;;;;5.13;3.00;;;4.80;55.30;;;;;;4973303;28;20030;-72
2021/03/06 10:54:02;;;;;;;6.73;2.90;;;4.90;54.40;;;;;;4972891;28;20078;-71
2021/03/06 10:56:28;;;;;;;4.63;2.70;;;4.90;54.70;;;;;;4955358;28;20048;-72
2021/03/06 10:58:54;;;;;;;5.53;3.07;;;5.00;54.50;;;;;;4957345;28;20496;-72
2021/03/06 11:01:19;;;;;;;4.13;2.70;;;4.90;53.10;;;;;;4943822;28;20074;-72
2021/03/06 11:03:46;;;;;;;6.60;3.27;;;5.00;53.70;;;;;;4948251;28;20520;-72
2021/03/06 11:06:14;;;;;;;5.07;3.27;;;5.00;53.70;;;;;;4951136;28;20027;-72
2021/03/06 11:08:40;;;;;;;4.27;2.67;;;5.00;54.00;;;;;;4945316;28;20034;-73
2021/03/06 11:11:08;;;;;;;4.27;2.70;;;5.20;53.30;;;;;;4950271;28;20561;-73
2021/03/06 11:13:46;;;;;;;5.43;2.90;;;5.30;52.70;;;;;;4954420;28;20031;-71
2021/03/06 11:16:14;;;;;;;3.63;2.70;;;5.30;54.10;;;;;;4955893;28;20035;-73
2021/03/06 11:18:41;;;;;;;5.17;2.80;;;5.30;54.40;;;;;;4956130;28;20073;-72
2021/03/06 11:21:13;;;;;;;5.80;2.83;;;5.30;54.10;;;;;;4953774;28;20496;-72
2021/03/06 11:23:39;;;;;;;4.85;3.03;;;5.40;53.00;;;;;;4958896;28;20035;-71
2021/03/06 11:26:05;;;;;;;5.07;3.00;;;5.40;54.20;;;;;;4966670;28;20075;-71
2021/03/06 11:28:31;;;;;;;3.73;2.43;;;5.60;55.20;;;;;;4946030;28;20059;-72
2021/03/06 11:30:57;;;;;;;4.37;2.70;;;5.60;51.10;;;;;;4963221;28;20031;-72
2021/03/06 11:33:23;;;;;;;4.50;2.70;;;5.60;50.90;;;;;;4963231;28;20058;-72
2021/03/06 11:35:50;;;;;;;4.90;2.67;;;5.70;51.50;;;;;;4967071;28;20038;-72
2021/03/06 11:38:18;;;;;;;4.90;3.10;;;5.80;52.00;;;;;;4967069;28;20037;-71
2021/03/06 11:40:46;;;;;;;4.37;3.13;;;5.80;52.10;;;;;;4952822;28;20144;-72
2021/03/06 11:43:12;;;;;;;5.87;3.00;;;5.80;51.50;;;;;;4947899;28;20123;-72
2021/03/06 11:45:39;;;;;;;4.97;2.80;;;5.90;50.80;;;;;;4973862;28;20126;-71
2021/03/06 11:48:06;;;;;;;3.47;2.57;;;6.00;51.50;;;;;;4966693;28;20098;-71
2021/03/06 11:50:34;;;;;;;3.83;2.37;;;6.10;50.90;;;;;;4962057;28;20515;-72
2021/03/06 11:53:00;;;;;;;4.17;2.57;;;6.20;50.60;;;;;;4965851;28;20447;-71
2021/03/06 11:55:26;;;;;;;3.53;2.47;;;6.20;50.60;;;;;;4965116;28;20039;-75
2021/03/06 11:57:52;;;;;;;3.90;2.30;;;6.30;51.40;;;;;;4963795;28;20035;-72
2021/03/06 12:00:22;;;;;;;3.83;2.73;;;6.40;48.30;;;;;;4967586;28;20080;-72
2021/03/06 12:02:49;;;;;;;2.80;2.33;;;6.40;48.10;;;;;;4971711;28;20042;-72
2021/03/06 12:05:14;;;;;;;4.10;2.60;;;6.40;50.40;;;;;;4964079;28;20038;-72
2021/03/06 12:07:42;;;;;;;2.73;2.30;;;6.50;49.10;;;;;;4965550;28;20118;-71
2021/03/06 12:10:13;;;;;;;3.57;2.40;;;6.60;49.30;;;;;;4973771;28;20035;-72
2021/03/06 12:12:39;;;;;;;3.80;2.30;;;6.70;49.10;;;;;;4961643;28;20039;-72
2021/03/06 12:15:07;;;;;;;5.00;2.60;;;6.80;48.80;;;;;;4955360;28;20278;-71
2021/03/06 12:17:33;;;;;;;3.20;2.17;;;6.90;46.60;;;;;;4954559;28;20401;-71
2021/03/06 12:19:59;;;;;;;3.07;2.30;;;7.00;47.00;;;;;;4962037;28;20395;-71
2021/03/06 12:22:24;;;;;;;3.77;2.20;;;7.20;47.10;;;;;;4952363;28;20039;-73
2021/03/06 12:24:52;;;;;;;3.53;2.23;;;7.40;47.90;;;;;;4962862;28;20057;-72
2021/03/06 12:27:18;;;;;;;3.97;2.93;;;7.60;46.40;;;;;;4964735;28;20034;-70
2021/03/06 12:29:44;;;;;;;4.10;2.40;;;7.80;47.30;;;;;;4962579;28;20393;-71
2021/03/06 12:32:10;;;;;;;4.17;2.30;;;8.10;47.60;;;;;;4962527;28;20389;-71
2021/03/06 12:34:36;;;;;;;3.17;2.23;;;8.30;46.20;;;;;;4964979;28;21085;-70
2021/03/06 12:37:02;;;;;;;4.00;2.17;;;8.60;46.60;;;;;;4966269;28;20468;-71
2021/03/06 12:39:28;;;;;;;3.23;1.73;;;8.90;43.00;;;;;;4965395;28;20391;-72
2021/03/06 12:41:54;;;;;;;2.05;1.80;;;9.10;41.30;;;;;;4974328;28;20038;-72
2021/03/06 12:44:21;;;;;;;4.35;1.75;;;9.40;41.10;;;;;;4960525;28;20078;-72
2021/03/06 12:46:48;;;;;;;4.65;2.28;;;9.60;42.20;;;;;;4966260;28;20043;-70
2021/03/06 12:49:18;;;;;;;2.72;1.80;;;9.90;41.10;;;;;;4976851;28;20038;-71
2021/03/06 12:51:44;;;;;;;2.10;1.90;;;10.00;39.90;;;;;;4956190;28;20288;-70
2021/03/06 12:54:10;;;;;;;2.92;1.98;;;10.30;40.70;;;;;;4971374;28;20031;-71
2021/03/06 12:56:36;;;;;;;6.20;1.95;;;10.50;39.00;;;;;;4958307;28;20049;-74
2021/03/06 12:59:02;;;;;;;5.82;2.13;;;10.80;39.90;;;;;;4966370;28;20395;-71
2021/03/06 13:01:27;;;;;;;2.47;1.70;;;11.10;40.70;;;;;;4976672;28;20522;-72
2021/03/06 13:03:53;;;;;;;3.15;2.22;;;11.30;38.20;;;;;;4976314;28;20035;-72
2021/03/06 13:06:19;;;;;;;2.13;1.92;;;11.90;37.30;;;;;;4977499;28;20027;-72
2021/03/06 13:08:45;;;;;;;3.05;2.20;;;12.80;35.90;;;;;;4966584;28;20038;-71